Cheyenne Regional Jerry Olson Field
KCYS : now visible

Airfield :











YOU CAN JOIN US ON...

 
LOGIN :

Register | Disclaimer

   EN    FR    IT 

 









Legend :    VFR   Marginal VFR   IFR   Intensive IFR   Very Intensive IFR
Visi :
Ceiling :
>= 8 km
>= 3000ft
5 to 8 km
1000 to 3000 ft
1500m to 5 km
500 to 1000 ft
800 to 1500m
200 to 500 ft
< 800m
< 200 ft
Symbols :   Thunderstorms  Fog  Heavy snow  Heavy precipitations  Wind > 20 kt







- Airport Elevation : 6159 ft
- IATA code : CYS


KCYS - Cheyenne Regional Jerry Olson Field

CURRENT METAR :
  • 162153Z 29012G17KT 10SM BKN110 27/M02 A2999 RMK AO2 SLP066 T02721017

EXPIRED METARs :
  • 162053Z VRB03KT 10SM CLR 29/M03 A3000 RMK AO2 SLP064 T02941028 56009
  • 161953Z 27007KT 10SM CLR 29/M02 A3000 RMK AO2 SLP067 T02941022

TAF KCYS
Valid from the 16 at 18:00 until the 17 at 18:00 UTC


161720Z 1618/1718 30015G25KT P6SM SKC
FM170300 25008KT P6SM BKN100
FM171500 27015G25KT P6SM SCT150
No reported NOTAMs for that airfield.



MET'MAP, your aeronautical weather chart ! - Copyright ORBIFLY December 2007 - Disclaimer

ORBIFLY MET'MAP TEAM :

Programming & Development : Alexandra Zaïnal
Concept & Development : Baudouin d'Aumeries
Co-Development & Prog : Marc-Olivier Méhu
Technical & hardware support : Manuel Goepfert

Contact : metmap@orbifly.com




SOURCES & CREDITS :

   NOAA       Earth
Advisory